createdAt,value
2022-11-16T00:01:18.232Z,97058.47
2022-11-16T00:03:45.720Z,97064.66
2022-11-16T00:06:14.303Z,97075.44
2022-11-16T00:08:42.947Z,97072.53
2022-11-16T00:11:13.678Z,97074.63
2022-11-16T00:13:42.548Z,97075.44
2022-11-16T00:16:16.073Z,97082.72
2022-11-16T00:18:43.413Z,97078.38
2022-11-16T00:21:11.363Z,97084.34
2022-11-16T00:23:39.106Z,97087.25
2022-11-16T00:26:12.378Z,97087.25
2022-11-16T00:28:41.262Z,97094.28
2022-11-16T00:31:09.825Z,97096.41
2022-11-16T00:33:37.435Z,97099.09
2022-11-16T00:36:06.948Z,97098.88
2022-11-16T00:38:34.872Z,97096.19
2022-11-16T00:41:02.591Z,97095.34
2022-11-16T00:43:30.819Z,97096.41
2022-11-16T00:45:59.650Z,97093.13
2022-11-16T00:48:27.048Z,97097.44
2022-11-16T00:50:54.479Z,97091.47
2022-11-16T00:53:22.707Z,97095.81
2022-11-16T00:55:50.463Z,97104.09
2022-11-16T00:58:20.098Z,97101.19
2022-11-16T01:00:52.272Z,97097.66
2022-11-16T01:03:21.139Z,97096.25
2022-11-16T01:05:48.512Z,97103.28
2022-11-16T01:08:15.821Z,97102.84
2022-11-16T01:10:43.150Z,97104.09
2022-11-16T01:13:11.648Z,97104.94
2022-11-16T01:15:38.981Z,97112.56
2022-11-16T01:18:06.877Z,97115.47
2022-11-16T01:20:35.684Z,97108.22
2022-11-16T01:23:03.032Z,97113.59
2022-11-16T01:25:30.439Z,97111.13
2022-11-16T01:27:57.811Z,97123.53
2022-11-16T01:30:35.736Z,97117.81
2022-11-16T01:33:07.382Z,97122.13
2022-11-16T01:35:36.730Z,97119.66
2022-11-16T01:38:04.197Z,97127.53
2022-11-16T01:40:33.476Z,97127.75
2022-11-16T01:43:00.841Z,97130.44
2022-11-16T01:45:37.595Z,97133.13
2022-11-16T01:48:08.266Z,97137.66
2022-11-16T01:50:38.536Z,97139.94
2022-11-16T01:53:07.220Z,97139.78
2022-11-16T01:55:46.793Z,97143.06
2022-11-16T01:58:25.402Z,97143.06
2022-11-16T02:00:58.729Z,97144.03
2022-11-16T02:03:41.916Z,97156.66
2022-11-16T02:06:39.773Z,97152.84
2022-11-16T02:09:41.457Z,97161.91
2022-11-16T02:12:32.058Z,97161.88
2022-11-16T02:15:16.019Z,97159.38
2022-11-16T02:18:00.754Z,97179.25
2022-11-16T02:21:00.892Z,97172.69
2022-11-16T02:23:53.287Z,97171.25
2022-11-16T02:26:36.730Z,97181.28
2022-11-16T02:29:24.708Z,97180.91
2022-11-16T02:32:00.615Z,97188.59
2022-11-16T02:34:34.056Z,97195.41
2022-11-16T02:39:31.301Z,97197.63
2022-11-16T02:42:00.264Z,97205.47
2022-11-16T02:44:33.725Z,97200.69
2022-11-16T02:47:06.138Z,97206.63
2022-11-16T02:49:36.575Z,97204.59
2022-11-16T02:52:05.710Z,97210.19
2022-11-16T02:54:33.225Z,97209.44
2022-11-16T02:57:28.990Z,97213.88
2022-11-16T03:00:00.279Z,97212.56
2022-11-16T03:02:37.411Z,97217.50
2022-11-16T03:05:09.839Z,97225.03
2022-11-16T03:07:48.197Z,97228.72
2022-11-16T03:10:18.972Z,97224.78
2022-11-16T03:12:47.004Z,97228.19
2022-11-16T03:15:18.673Z,97226.72
2022-11-16T03:17:49.925Z,97228.53
2022-11-16T03:20:22.223Z,97226.47
2022-11-16T03:22:52.577Z,97226.78
2022-11-16T03:25:23.575Z,97224.97
2022-11-16T03:27:57.049Z,97236.13
2022-11-16T03:30:30.591Z,97229.75
2022-11-16T03:33:04.480Z,97234.03
2022-11-16T03:35:39.239Z,97233.09
2022-11-16T03:38:09.178Z,97244.25
2022-11-16T03:40:41.748Z,97247.34
2022-11-16T03:43:09.197Z,97253.53
2022-11-16T03:45:38.939Z,97253.09
2022-11-16T03:48:09.105Z,97261.16
2022-11-16T03:50:36.471Z,97260.56
2022-11-16T03:53:03.858Z,97276.28
2022-11-16T03:55:32.084Z,97276.91
2022-11-16T03:57:59.464Z,97276.03
2022-11-16T04:00:26.889Z,97274.91
2022-11-16T04:02:55.688Z,97276.16
2022-11-16T04:05:24.771Z,97277.56
2022-11-16T04:07:53.048Z,97285.41
2022-11-16T04:10:20.803Z,97291.81
2022-11-16T04:12:48.250Z,97287.53
2022-11-16T04:15:16.012Z,97292.84
2022-11-16T04:17:43.408Z,97296.22
2022-11-16T04:20:15.155Z,97294.13
2022-11-16T04:22:47.864Z,97293.50
2022-11-16T04:25:19.921Z,97300.69
2022-11-16T04:27:48.336Z,97302.78
2022-11-16T04:30:16.942Z,97300.31
2022-11-16T04:32:44.559Z,97298.16
2022-11-16T04:35:13.931Z,97313.69
2022-11-16T04:37:41.293Z,97314.50
2022-11-16T04:40:10.144Z,97312.78
2022-11-16T04:42:37.827Z,97315.94
2022-11-16T04:45:06.117Z,97313.81
2022-11-16T04:47:43.449Z,97313.00
2022-11-16T04:50:11.624Z,97310.19
2022-11-16T04:52:42.194Z,97321.91
2022-11-16T04:55:13.260Z,97330.31
2022-11-16T04:57:41.188Z,97336.06
2022-11-16T05:00:10.092Z,97324.09
2022-11-16T05:02:39.638Z,97329.88
2022-11-16T05:05:07.868Z,97332.03
2022-11-16T05:07:37.980Z,97338.84
2022-11-16T05:10:15.905Z,97338.09
2022-11-16T05:12:43.814Z,97336.22
2022-11-16T05:15:11.461Z,97337.47
2022-11-16T05:17:39.864Z,97342.19
2022-11-16T05:20:13.292Z,97352.41
2022-11-16T05:25:21.719Z,97351.47
2022-11-16T05:27:50.160Z,97354.75
2022-11-16T05:30:17.891Z,97359.44
2022-11-16T05:32:46.118Z,97357.91
2022-11-16T05:35:15.485Z,97363.13
2022-11-16T05:37:43.551Z,97365.53
2022-11-16T05:40:12.148Z,97362.03
2022-11-16T05:42:50.831Z,97368.81
2022-11-16T05:45:21.262Z,97361.53
2022-11-16T05:47:49.798Z,97366.81
2022-11-16T05:50:18.009Z,97376.53
2022-11-16T05:52:58.739Z,97376.28
2022-11-16T05:55:26.194Z,97382.06
2022-11-16T05:57:55.008Z,97384.94
2022-11-16T06:00:22.645Z,97386.44
2022-11-16T06:02:53.037Z,97393.22
2022-11-16T06:05:26.352Z,97383.47
2022-11-16T06:07:55.143Z,97391.16
2022-11-16T06:10:23.321Z,97390.50
2022-11-16T06:12:54.264Z,97399.91
2022-11-16T06:15:21.834Z,97397.09
2022-11-16T06:17:49.320Z,97391.06
2022-11-16T06:20:17.651Z,97401.59
2022-11-16T06:22:45.987Z,97398.69
2022-11-16T06:25:14.262Z,97409.78
2022-11-16T06:27:44.140Z,97411.84
2022-11-16T06:30:16.961Z,97416.16
2022-11-16T06:32:45.197Z,97418.88
2022-11-16T06:35:13.255Z,97418.34
2022-11-16T06:37:40.778Z,97418.44
2022-11-16T06:40:10.287Z,97422.41
2022-11-16T06:42:42.190Z,97423.59
2022-11-16T06:45:11.831Z,97421.44
2022-11-16T06:47:44.357Z,97422.28
2022-11-16T06:50:12.796Z,97427.22
2022-11-16T06:52:40.240Z,97427.50
2022-11-16T06:55:09.240Z,97434.91
2022-11-16T06:57:38.999Z,97433.25
2022-11-16T07:00:08.684Z,97431.78
2022-11-16T07:02:38.101Z,97440.25
2022-11-16T07:05:09.368Z,97435.66
2022-11-16T07:07:36.694Z,97435.34
2022-11-16T07:10:05.498Z,97436.38
2022-11-16T07:12:32.967Z,97435.34
2022-11-16T07:15:01.929Z,97435.75
2022-11-16T07:17:32.277Z,97431.00
2022-11-16T07:19:59.839Z,97434.09
2022-11-16T07:22:28.787Z,97430.44
2022-11-16T07:24:56.217Z,97436.25
2022-11-16T07:27:24.055Z,97432.94
2022-11-16T07:29:52.624Z,97425.47
2022-11-16T07:32:38.480Z,97431.94
2022-11-16T07:38:40.827Z,97433.50
2022-11-16T07:41:11.988Z,97442.38
2022-11-16T07:43:52.576Z,97453.13
2022-11-16T07:52:09.322Z,97454.00
2022-11-16T07:55:01.925Z,97454.94
2022-11-16T07:57:30.858Z,97459.31
2022-11-16T08:00:01.709Z,97466.34
2022-11-16T08:02:41.241Z,97467.84
2022-11-16T08:05:13.233Z,97465.16
2022-11-16T08:07:40.963Z,97470.72
2022-11-16T08:10:10.899Z,97475.75
2022-11-16T08:12:40.692Z,97473.41
2022-11-16T08:15:09.226Z,97482.53
2022-11-16T08:17:36.893Z,97479.44
2022-11-16T08:20:07.920Z,97474.47
2022-11-16T08:22:35.525Z,97479.41
2022-11-16T08:25:03.232Z,97476.31
2022-11-16T08:27:33.174Z,97479.88
2022-11-16T08:30:01.609Z,97485.44
2022-11-16T08:32:30.110Z,97481.50
2022-11-16T08:34:58.377Z,97493.03
2022-11-16T08:37:25.824Z,97494.94
2022-11-16T08:39:53.411Z,97487.94
2022-11-16T08:42:21.437Z,97490.03
2022-11-16T08:44:51.544Z,97490.22
2022-11-16T08:47:21.011Z,97488.78
2022-11-16T08:49:52.295Z,97498.03
2022-11-16T08:52:21.355Z,97497.00
2022-11-16T08:54:50.707Z,97498.66
2022-11-16T08:57:18.822Z,97494.34
2022-11-16T08:59:49.437Z,97497.47
2022-11-16T09:02:18.784Z,97498.28
2022-11-16T09:04:46.936Z,97499.09
2022-11-16T09:07:15.765Z,97502.78
2022-11-16T09:09:43.702Z,97510.28
2022-11-16T09:12:10.990Z,97508.00
2022-11-16T09:14:38.514Z,97513.09
2022-11-16T09:17:06.212Z,97509.72
2022-11-16T09:19:35.181Z,97520.13
2022-11-16T09:22:02.696Z,97531.44
2022-11-16T09:24:30.118Z,97526.47
2022-11-16T09:26:59.340Z,97527.34
2022-11-16T09:29:27.353Z,97527.56
2022-11-16T09:31:55.521Z,97528.16
2022-11-16T09:34:23.159Z,97532.97
2022-11-16T09:36:52.395Z,97545.41
2022-11-16T09:39:30.740Z,97545.63
2022-11-16T09:42:15.832Z,97540.44
2022-11-16T09:44:58.679Z,97543.78
2022-11-16T09:47:45.666Z,97549.16
2022-11-16T09:50:34.274Z,97554.53
2022-11-16T09:53:14.278Z,97556.59
2022-11-16T09:55:49.166Z,97563.22
2022-11-16T09:58:22.247Z,97565.06
2022-11-16T10:00:56.657Z,97558.50
2022-11-16T10:03:25.583Z,97559.53
2022-11-16T10:06:00.163Z,97571.50
2022-11-16T10:08:40.932Z,97562.38
2022-11-16T10:11:24.673Z,97568.63
2022-11-16T10:14:04.471Z,97578.34
2022-11-16T10:16:38.760Z,97582.69
2022-11-16T10:19:15.519Z,97581.03
2022-11-16T10:21:53.365Z,97584.28
2022-11-16T10:24:33.704Z,97591.31
2022-11-16T10:27:21.967Z,97595.97
2022-11-16T10:30:02.330Z,97599.06
2022-11-16T10:32:32.667Z,97599.47
2022-11-16T10:35:03.445Z,97606.09
2022-11-16T10:37:35.093Z,97610.44
2022-11-16T10:40:17.082Z,97607.75
2022-11-16T10:42:46.986Z,97611.25
2022-11-16T10:45:18.299Z,97612.91
2022-11-16T10:47:52.612Z,97614.38
2022-11-16T10:50:33.208Z,97623.69
2022-11-16T10:53:01.299Z,97633.22
2022-11-16T10:55:30.637Z,97632.34
2022-11-16T10:58:00.061Z,97633.03
2022-11-16T11:00:40.636Z,97634.03
2022-11-16T11:03:08.201Z,97642.28
2022-11-16T11:05:36.445Z,97644.78
2022-11-16T11:08:06.590Z,97640.03
2022-11-16T11:17:42.833Z,97653.47
2022-11-16T11:20:22.204Z,97654.94
2022-11-16T11:22:54.298Z,97663.41
2022-11-16T11:25:25.158Z,97665.06
2022-11-16T11:28:04.512Z,97669.22
2022-11-16T11:30:32.498Z,97661.75
2022-11-16T11:33:02.016Z,97666.72
2022-11-16T11:35:31.295Z,97674.59
2022-11-16T11:38:07.442Z,97686.00
2022-11-16T11:40:35.689Z,97687.44
2022-11-16T11:43:05.242Z,97686.00
2022-11-16T11:45:45.647Z,97691.59
2022-11-16T11:48:37.133Z,97698.63
2022-11-16T11:51:14.157Z,97697.19
2022-11-16T11:53:53.992Z,97705.25
2022-11-16T11:56:21.533Z,97703.41
2022-11-16T11:58:49.633Z,97703.59
2022-11-16T12:01:48.271Z,97718.53
2022-11-16T12:04:53.664Z,97717.50
2022-11-16T12:07:53.693Z,97718.53
2022-11-16T12:10:31.662Z,97739.03
2022-11-16T12:13:15.645Z,97732.59
2022-11-16T12:15:54.931Z,97743.16
2022-11-16T12:18:46.490Z,97740.41
2022-11-16T12:21:17.393Z,97748.75
2022-11-16T12:24:10.338Z,97753.53
2022-11-16T12:26:49.525Z,97749.78
2022-11-16T12:29:24.805Z,97748.97
2022-11-16T12:32:18.500Z,97757.88
2022-11-16T12:35:01.578Z,97759.94
2022-11-16T12:37:37.301Z,97758.50
2022-11-16T12:40:29.731Z,97753.50
2022-11-16T12:43:05.475Z,97758.28
2022-11-16T12:45:45.859Z,97761.81
2022-11-16T12:48:40.423Z,97761.59
2022-11-16T12:51:18.631Z,97765.97
2022-11-16T12:54:01.125Z,97766.56
2022-11-16T12:56:48.672Z,97770.06
2022-11-16T12:59:35.629Z,97780.84
2022-11-16T13:02:14.888Z,97769.66
2022-11-16T13:04:45.944Z,97777.13
2022-11-16T13:07:17.729Z,97776.09
2022-11-16T13:09:49.212Z,97788.13
2022-11-16T13:12:22.470Z,97787.88
2022-11-16T13:14:53.516Z,97802.59
2022-11-16T13:17:24.301Z,97800.72
2022-11-16T13:20:11.643Z,97804.88
2022-11-16T13:22:46.941Z,97805.50
2022-11-16T13:25:19.163Z,97809.66
2022-11-16T13:27:53.549Z,97811.31
2022-11-16T13:30:22.743Z,97809.66
2022-11-16T13:33:03.748Z,97817.72
2022-11-16T13:35:31.321Z,97822.69
2022-11-16T13:37:58.744Z,97824.78
2022-11-16T13:40:30.795Z,97830.16
2022-11-16T13:43:16.245Z,97831.59
2022-11-16T13:45:52.772Z,97832.84
2022-11-16T13:48:23.080Z,97838.66
2022-11-16T13:50:53.940Z,97841.53
2022-11-16T13:56:21.826Z,97841.53
2022-11-16T13:58:53.668Z,97844.72
2022-11-16T14:01:21.255Z,97848.34
2022-11-16T14:03:50.088Z,97845.06
2022-11-16T14:06:57.623Z,97850.25
2022-11-16T14:09:45.183Z,97850.47
2022-11-16T14:12:54.814Z,97851.50
2022-11-16T14:15:24.997Z,97860.19
2022-11-16T14:17:58.154Z,97856.28
2022-11-16T14:20:37.368Z,97859.16
2022-11-16T14:23:16.497Z,97859.16
2022-11-16T14:25:47.223Z,97857.28
2022-11-16T14:28:43.213Z,97864.75
2022-11-16T14:31:21.360Z,97871.59
2022-11-16T14:33:52.083Z,97872.44
2022-11-16T14:36:36.432Z,97876.97
2022-11-16T14:39:23.505Z,97875.94
2022-11-16T14:41:51.489Z,97877.16
2022-11-16T14:44:21.072Z,97872.81
2022-11-16T14:46:50.815Z,97884.22
2022-11-16T14:49:19.114Z,97881.75
2022-11-16T14:51:50.643Z,97885.06
2022-11-16T14:54:25.446Z,97887.50
2022-11-16T14:56:57.805Z,97890.00
2022-11-16T14:59:25.518Z,97897.06
2022-11-16T15:01:55.588Z,97894.78
2022-11-16T15:04:25.520Z,97897.47
2022-11-16T15:06:56.937Z,97901.41
2022-11-16T15:09:29.843Z,97907.81
2022-11-16T15:11:59.295Z,97910.31
2022-11-16T15:14:30.561Z,97916.13
2022-11-16T15:17:00.296Z,97914.44
2022-11-16T15:19:29.616Z,97925.63
2022-11-16T15:21:59.057Z,97911.97
2022-11-16T15:24:31.091Z,97921.91
2022-11-16T15:27:09.981Z,97918.59
2022-11-16T15:29:37.744Z,97927.72
2022-11-16T15:32:07.275Z,97935.78
2022-11-16T15:34:34.815Z,97937.25
2022-11-16T15:37:02.252Z,97945.75
2022-11-16T15:39:34.616Z,97946.38
2022-11-16T15:42:04.169Z,97949.88
2022-11-16T15:44:31.644Z,97948.03
2022-11-16T15:46:59.771Z,97947.84
2022-11-16T15:49:33.886Z,97959.59
2022-11-16T15:52:02.733Z,97958.19
2022-11-16T15:54:32.073Z,97959.59
2022-11-16T15:57:08.205Z,97959.00
2022-11-16T15:59:37.263Z,97962.09
2022-11-16T16:02:05.215Z,97957.16
2022-11-16T16:04:34.372Z,97965.22
2022-11-16T16:07:02.154Z,97965.84
2022-11-16T16:09:31.942Z,97965.78
2022-11-16T16:12:17.697Z,97977.84
2022-11-16T16:14:46.037Z,97979.91
2022-11-16T16:17:24.513Z,97974.34
2022-11-16T16:19:56.836Z,97975.38
2022-11-16T16:22:26.949Z,97987.16
2022-11-16T16:24:55.088Z,97987.81
2022-11-16T16:27:24.930Z,97985.50
2022-11-16T16:29:53.705Z,97981.28
2022-11-16T16:32:26.115Z,97989.00
2022-11-16T16:34:56.519Z,97999.59
2022-11-16T16:37:27.019Z,97993.56
2022-11-16T16:39:54.760Z,98000.22
2022-11-16T16:42:22.156Z,98007.69
2022-11-16T16:44:50.591Z,98003.97
2022-11-16T16:47:18.689Z,98013.06
2022-11-16T16:49:46.416Z,98014.72
2022-11-16T16:52:15.532Z,98021.78
2022-11-16T16:54:43.073Z,98021.78
2022-11-16T16:57:13.360Z,98019.88
2022-11-16T16:59:40.744Z,98028.19
2022-11-16T17:02:10.838Z,98029.13
2022-11-16T17:04:38.741Z,98020.88
2022-11-16T17:07:07.141Z,98039.28
2022-11-16T17:09:36.099Z,98034.63
2022-11-16T17:12:04.147Z,98024.91
2022-11-16T17:14:31.739Z,98035.75
2022-11-16T17:17:01.309Z,98037.84
2022-11-16T17:19:28.569Z,98048.00
2022-11-16T17:21:56.254Z,98038.72
2022-11-16T17:24:23.619Z,98048.25
2022-11-16T17:26:52.959Z,98048.63
2022-11-16T17:29:20.351Z,98050.72
2022-11-16T17:31:47.936Z,98050.94
2022-11-16T17:34:15.329Z,98062.34
2022-11-16T17:36:42.797Z,98065.25
2022-11-16T17:39:10.314Z,98066.09
2022-11-16T17:41:37.982Z,98073.13
2022-11-16T17:44:08.308Z,98066.94
2022-11-16T17:46:36.189Z,98067.31
2022-11-16T17:49:03.599Z,98072.69
2022-11-16T17:51:31.009Z,98081.63
2022-11-16T17:53:58.374Z,98089.06
2022-11-16T17:56:28.178Z,98087.81
2022-11-16T17:58:55.935Z,98094.03
2022-11-16T18:01:25.386Z,98105.00
2022-11-16T18:03:52.831Z,98102.53
2022-11-16T18:06:21.701Z,98113.09
2022-11-16T18:08:49.437Z,98110.38
2022-11-16T18:11:18.270Z,98114.53
2022-11-16T18:13:47.379Z,98109.75
2022-11-16T18:16:16.989Z,98117.84
2022-11-16T18:18:46.714Z,98122.19
2022-11-16T18:21:20.385Z,98125.94
2022-11-16T18:23:48.903Z,98124.88
2022-11-16T18:26:18.039Z,98131.94
2022-11-16T18:28:45.745Z,98138.34
2022-11-16T18:31:15.640Z,98139.38
2022-11-16T18:33:43.748Z,98140.22
2022-11-16T18:36:13.816Z,98138.75
2022-11-16T18:38:40.846Z,98147.47
2022-11-16T18:41:17.245Z,98149.75
2022-11-16T18:43:49.368Z,98155.13
2022-11-16T18:46:16.910Z,98149.75
2022-11-16T18:48:44.708Z,98160.75
2022-11-16T18:51:14.510Z,98162.78
2022-11-16T18:53:41.538Z,98171.69
2022-11-16T18:56:09.137Z,98173.16
2022-11-16T18:58:49.828Z,98168.16
2022-11-16T19:01:20.155Z,98170.66
2022-11-16T19:03:47.569Z,98175.25
2022-11-16T19:06:16.493Z,98177.72
2022-11-16T19:08:45.425Z,98169.63
2022-11-16T19:11:16.421Z,98187.00
2022-11-16T19:13:44.921Z,98184.31
2022-11-16T19:16:13.839Z,98192.41
2022-11-16T19:18:41.759Z,98194.09
2022-11-16T19:21:11.718Z,98192.41
2022-11-16T19:23:42.145Z,98199.03
2022-11-16T19:26:10.748Z,98210.63
2022-11-16T19:28:38.947Z,98206.06
2022-11-16T19:31:08.310Z,98212.88
2022-11-16T19:33:36.278Z,98212.25
2022-11-16T19:36:09.026Z,98213.91
2022-11-16T19:38:36.578Z,98211.03
2022-11-16T19:41:05.913Z,98215.34
2022-11-16T19:43:34.055Z,98220.13
2022-11-16T19:46:06.903Z,98224.03
2022-11-16T19:48:34.493Z,98226.31
2022-11-16T19:51:08.912Z,98233.41
2022-11-16T19:53:36.756Z,98234.63
2022-11-16T19:56:08.984Z,98232.97
2022-11-16T19:58:36.373Z,98240.19
2022-11-16T20:01:04.670Z,98242.88
2022-11-16T20:03:32.858Z,98250.16
2022-11-16T20:06:06.141Z,98252.25
2022-11-16T20:08:33.464Z,98253.25
2022-11-16T20:11:00.787Z,98253.06
2022-11-16T20:13:29.648Z,98262.81
2022-11-16T20:15:57.015Z,98257.25
2022-11-16T20:18:24.396Z,98263.66
2022-11-16T20:20:51.707Z,98271.50
2022-11-16T20:23:19.245Z,98270.06
2022-11-16T20:25:46.539Z,98274.44
2022-11-16T20:28:13.884Z,98285.19
2022-11-16T20:30:47.373Z,98280.44
2022-11-16T20:33:15.018Z,98286.63
2022-11-16T20:35:42.855Z,98289.56
2022-11-16T20:38:10.208Z,98293.28
2022-11-16T20:40:37.641Z,98302.63
2022-11-16T20:43:04.986Z,98305.50
2022-11-16T20:45:33.419Z,98295.56
2022-11-16T20:48:02.197Z,98299.28
2022-11-16T20:50:29.590Z,98296.78
2022-11-16T20:52:56.913Z,98303.81
2022-11-16T20:55:24.241Z,98303.66
2022-11-16T20:57:51.532Z,98305.50
2022-11-16T21:00:19.237Z,98310.88
2022-11-16T21:02:46.744Z,98310.88
2022-11-16T21:05:15.754Z,98308.59
2022-11-16T21:07:43.126Z,98309.44
2022-11-16T21:10:11.033Z,98316.66
2022-11-16T21:12:42.678Z,98316.03
2022-11-16T21:15:10.668Z,98319.16
2022-11-16T21:17:38.012Z,98327.25
2022-11-16T21:20:26.479Z,98327.03
2022-11-16T21:22:55.317Z,98325.38
2022-11-16T21:25:22.632Z,98336.13
2022-11-16T21:27:50.027Z,98345.25
2022-11-16T21:30:17.618Z,98342.78
2022-11-16T21:32:44.923Z,98346.72
2022-11-16T21:35:12.258Z,98347.75
2022-11-16T21:37:39.660Z,98352.50
2022-11-16T21:40:10.322Z,98352.31
2022-11-16T21:42:37.646Z,98357.25
2022-11-16T21:45:05.472Z,98363.66
2022-11-16T21:47:32.830Z,98368.22
2022-11-16T21:50:30.025Z,98369.03
2022-11-16T21:52:47.501Z,98374.41
2022-11-16T22:04:25.883Z,98390.97
2022-11-16T22:06:53.296Z,98401.09
2022-11-16T22:09:21.350Z,98408.16
2022-11-16T22:11:48.651Z,98409.19
2022-11-16T22:14:17.506Z,98410.22
2022-11-16T22:16:45.327Z,98423.66
2022-11-16T22:19:13.192Z,98413.94
2022-11-16T22:21:41.046Z,98408.34
2022-11-16T22:24:09.075Z,98420.34
2022-11-16T22:26:37.051Z,98425.72
2022-11-16T22:29:04.879Z,98415.13
2022-11-16T22:31:33.764Z,98429.41
2022-11-16T22:34:01.179Z,98424.03
2022-11-16T22:36:28.562Z,98421.56
2022-11-16T22:38:56.407Z,98432.50
2022-11-16T22:47:57.258Z,98447.63
2022-11-16T22:50:24.597Z,98456.72
2022-11-16T22:52:51.925Z,98453.00
2022-11-16T22:55:19.259Z,98450.72
2022-11-16T22:57:47.140Z,98462.28
2022-11-16T23:00:15.159Z,98464.63
2022-11-16T23:02:42.471Z,98470.59
2022-11-16T23:05:11.310Z,98462.50
2022-11-16T23:07:38.746Z,98465.84
2022-11-16T23:10:07.173Z,98469.56
2022-11-16T23:12:34.503Z,98469.38
2022-11-16T23:15:01.829Z,98474.94
2022-11-16T23:17:29.165Z,98489.88
2022-11-16T23:19:56.479Z,98489.88
2022-11-16T23:22:25.247Z,98498.41
2022-11-16T23:24:52.740Z,98499.97
2022-11-16T23:27:20.114Z,98499.97
2022-11-16T23:29:47.532Z,98497.97
2022-11-16T23:32:14.868Z,98501.28
2022-11-16T23:34:42.205Z,98505.00
2022-11-16T23:37:09.550Z,98506.84
2022-11-16T23:39:38.320Z,98510.41
2022-11-16T23:42:05.764Z,98514.56
2022-11-16T23:44:33.119Z,98519.50
2022-11-16T23:47:00.542Z,98515.13
2022-11-16T23:49:27.832Z,98522.81
2022-11-16T23:51:55.328Z,98522.66
2022-11-16T23:54:22.863Z,98524.50
2022-11-16T23:56:51.608Z,98539.44
2022-11-16T23:59:18.934Z,98545.41
